Latest Weather Observations for Albury

IDV60801

Issued at 10:02 pm EST Saturday 25 April 2015 (issued every 30 minutes, with the page automatically refreshed every 10 minutes)

About weather observations | Map of weather stations | Latest weather observations for VIC | Other Formats
Station Details ID: 072160 Name: ALBURY AIRPORT AWS Lat: -36.07 Lon: 146.95 Height: 163.5 m
Data from the previous 72 hours. | See also: Recent months at Albury
Date/Time
EST
Temp
°C
App
Temp
°C
Dew
Point
Rel
Hum
%
Delta-T
°C
Wind Press
QNH
hPa
Press
MSL
hPa
Rain
since 9 am
mm
Dir
 
Spd
km/h
Gust
km/h
Spd
kts
Gust
kts
25/10:00pm 9.7 9.5 9.2 97 0.2 CALM 0 0 0 0 1010.6 1010.4 2.4
25/09:38pm 10.2 10.2 9.9 98 0.2 CALM 0 0 0 0 1010.6 1010.4 2.4
25/09:30pm 10.3 10.4 10.0 98 0.2 CALM 0 0 0 0 1010.5 1010.3 2.4
25/09:19pm 10.0 9.5 9.5 97 0.3 SSE 2 6 1 3 1010.2 1010.0 2.4
25/09:00pm 10.7 9.4 10.1 96 0.3 S 7 9 4 5 1010.2 1010.0 2.4
25/08:30pm 11.5 11.6 10.1 91 0.7 CALM 0 7 0 4 1010.0 1009.8 2.4
25/08:00pm 11.8 10.8 10.2 90 0.8 NW 6 7 3 4 1010.0 1009.8 2.4
25/07:30pm 11.8 10.3 10.4 91 0.7 NW 9 9 5 5 1009.7 1009.4 2.4
25/07:00pm 11.4 10.1 9.3 87 1.1 NW 6 9 3 5 1009.1 1008.9 2.4
25/06:30pm 12.4 12.5 10.1 86 1.2 CALM 0 0 0 0 1008.8 1008.6 2.4
25/06:00pm 12.2 12.2 9.8 85 1.2 CALM 0 0 0 0 1008.3 1008.1 2.4
25/05:30pm 13.4 13.4 9.8 79 1.9 CALM 0 0 0 0 1008.1 1007.9 2.4
25/05:00pm 14.0 12.9 9.8 76 2.2 NE 6 7 3 4 1007.8 1007.6 2.4
25/04:30pm 14.8 12.9 9.2 69 2.9 E 9 13 5 7 1007.3 1007.1 2.4
25/04:00pm 15.6 13.0 9.3 66 3.3 SSE 13 17 7 9 1007.1 1006.9 2.4
25/03:30pm 15.6 12.8 9.9 69 3.0 SSE 15 22 8 12 1007.2 1007.0 2.4
25/03:00pm 15.7 13.0 10.5 71 2.8 SE 15 20 8 11 1007.0 1006.8 2.4
25/02:30pm 15.2 13.4 11.0 76 2.3 SSE 11 17 6 9 1007.0 1006.8 2.4
25/02:00pm 14.0 12.3 11.2 83 1.5 SE 11 15 6 8 1007.1 1006.9 2.4
25/01:30pm 13.4 10.9 11.1 86 1.2 SSE 15 22 8 12 1007.3 1007.1 2.4
25/01:00pm 13.6 11.8 10.8 83 1.5 SE 11 15 6 8 1007.5 1007.3 2.4
25/12:30pm 13.1 10.5 10.8 86 1.2 SE 15 22 8 12 1007.6 1007.4 2.2
25/12:00pm 12.6 11.1 11.8 95 0.4 SSE 11 17 6 9 1007.8 1007.6 2.2
25/11:30am 12.3 11.1 11.5 95 0.4 S 9 13 5 7 1008.2 1008.0 2.2
25/11:04am 12.5 10.9 11.4 93 0.6 SE 11 15 6 8 1008.4 1008.2 2.2
25/11:00am 12.5 10.0 11.2 92 0.7 SE 15 20 8 11 1008.3 1008.1 2.0
25/10:48am 12.8 11.9 11.2 90 0.8 S 7 13 4 7 1008.5 1008.3 1.6
25/10:30am 13.1 11.4 11.2 88 1.0 SE 11 17 6 9 1008.6 1008.4 0.0
25/10:15am 13.3 11.4 11.7 90 0.9 SSE 13 17 7 9 1008.5 1008.3 0.0
25/10:00am 13.3 11.8 11.9 91 0.8 S 11 15 6 8 1008.5 1008.3 0.0
25/09:34am 13.4 12.5 12.5 94 0.5 SSE 9 11 5 6 1008.6 1008.4 0.0
25/09:30am 13.3 12.3 12.4 94 0.5 SSE 9 11 5 6 1008.7 1008.5 0.0
25/09:17am 13.2 12.6 12.3 94 0.5 S 7 11 4 6 1008.5 1008.3 0.0
25/09:00am 12.8 12.2 12.3 97 0.3 S 7 9 4 5 1008.3 1008.1 7.0
25/08:35am 12.5 12.5 12.5 100 0.0 ESE 4 9 2 5 1008.3 1008.1 7.0
25/08:30am 12.5 13.3 12.5 100 0.0 CALM 0 2 0 1 1008.3 1008.1 7.0
25/08:22am 12.3 11.9 12.3 100 0.0 SE 6 9 3 5 1008.1 1007.9 7.0
25/08:12am 12.2 10.8 12.2 100 0.0 ESE 11 19 6 10 1008.0 1007.8 7.0
25/08:00am 12.2 10.7 12.0 99 0.1 SW 11 22 6 12 1007.4 1007.2 6.4
25/07:46am 12.2 11.1 12.0 99 0.1 W 9 13 5 7 1008.3 1008.1 4.6
25/07:32am 12.3 12.2 12.0 98 0.2 SSW 4 6 2 3 1007.9 1007.7 3.4
25/07:30am 12.2 12.0 11.9 98 0.2 SW 4 7 2 4 1007.8 1007.6 3.2
25/07:07am 12.1 10.6 11.8 98 0.2 WSW 11 15 6 8 1007.6 1007.4 3.0
25/07:00am 12.1 10.2 11.9 99 0.1 WSW 13 17 7 9 1007.5 1007.3 3.0
25/06:48am 12.1 10.2 11.9 99 0.1 WNW 13 24 7 13 1007.6 1007.4 2.4
25/06:30am 11.6 11.7 11.4 99 0.1 SW 2 7 1 4 1007.2 1007.0 1.0
25/06:00am 10.9 9.7 10.4 97 0.3 SSW 7 13 4 7 1006.5 1006.3 1.0
25/05:30am 11.4 10.1 11.2 99 0.1 NE 9 15 5 8 1006.7 1006.5 0.2
25/05:00am 11.2 10.4 11.0 99 0.1 NNE 6 7 3 4 1006.3 1006.1 0.2
25/04:34am 10.3 9.5 9.8 97 0.3 SSE 4 9 2 5 1006.5 1006.3 0.2
25/04:30am 10.0 8.6 9.4 96 0.3 SSE 7 9 4 5 1006.4 1006.2 0.2
25/04:13am 10.4 9.1 9.8 96 0.3 S 7 9 4 5 1006.3 1006.1 0.2
25/04:00am 10.9 10.6 10.0 94 0.5 NE 2 7 1 4 1006.4 1006.2 0.2
25/03:30am 11.5 10.6 10.7 95 0.4 NNE 6 6 3 3 1006.6 1006.4 0.0
25/03:00am 11.8 12.1 10.9 94 0.5 CALM 0 0 0 0 1006.7 1006.5 0.0
25/02:30am 11.8 12.0 10.5 92 0.7 CALM 0 0 0 0 1006.8 1006.6 0.0
25/02:00am 12.1 11.1 11.0 93 0.6 SSE 7 9 4 5 1006.9 1006.7 0.0
25/01:30am 12.2 12.6 11.3 94 0.5 CALM 0 0 0 0 1007.1 1006.9 0.0
25/01:00am 12.3 12.6 11.0 92 0.7 CALM 0 0 0 0 1007.5 1007.3 0.0
25/12:30am 12.7 13.1 11.1 90 0.8 CALM 0 0 0 0 1007.6 1007.4 0.0
25/12:00am 12.9 13.3 11.1 89 1.0 CALM 0 0 0 0 1007.7 1007.5 0.0
 
Date/Time
EST
Temp
°C
App
Temp
°C
Dew
Point
Rel
Hum
%
Delta-T
°C
Wind Press
QNH
hPa
Press
MSL
hPa
Rain
since 9 am
mm
Dir
 
Spd
km/h
Gust
km/h
Spd
kts
Gust
kts
24/11:30pm 12.7 13.0 10.8 88 1.0 CALM 0 0 0 0 1007.8 1007.6 0.0
24/11:00pm 13.1 13.4 10.8 86 1.2 CALM 0 0 0 0 1007.8 1007.6 0.0
24/10:30pm 13.2 13.4 10.7 85 1.3 CALM 0 0 0 0 1007.9 1007.7 0.0
24/10:00pm 13.3 13.4 10.1 81 1.7 CALM 0 4 0 2 1007.9 1007.7 0.0
24/09:30pm 14.6 13.6 10.4 76 2.2 NNE 6 7 3 4 1008.0 1007.8 0.0
24/09:00pm 15.1 14.0 10.5 74 2.4 N 7 7 4 4 1008.0 1007.8 0.0
24/08:30pm 15.5 14.3 10.3 71 2.8 NW 7 11 4 6 1007.6 1007.4 0.0
24/08:00pm 16.0 14.1 10.5 70 2.9 WNW 11 15 6 8 1007.5 1007.3 0.0
24/07:30pm 16.2 13.9 10.5 69 3.0 WNW 13 19 7 10 1007.5 1007.3 0.0
24/07:00pm 16.4 14.1 10.5 68 3.2 WNW 13 17 7 9 1007.2 1007.0 0.0
24/06:30pm 16.3 14.5 9.5 64 3.6 NW 9 13 5 7 1006.8 1006.6 0.0
24/06:00pm 17.4 15.3 9.8 61 4.0 NW 11 19 6 10 1006.3 1006.1 0.0
24/05:30pm 18.1 15.4 10.2 60 4.2 WNW 15 20 8 11 1006.0 1005.8 0.0
24/05:00pm 18.4 16.1 10.3 59 4.4 WNW 13 19 7 10 1005.9 1005.7 0.0
24/04:30pm 18.7 16.4 10.3 58 4.5 NW 13 20 7 11 1005.8 1005.6 0.0
24/04:00pm 18.9 16.3 10.7 59 4.5 NW 15 20 8 11 1005.7 1005.5 0.0
24/03:30pm 19.2 16.5 10.5 57 4.7 NW 15 19 8 10 1005.6 1005.4 0.0
24/03:00pm 19.4 16.3 10.4 56 4.9 NW 17 22 9 12 1005.5 1005.3 0.0
24/02:30pm 19.4 16.9 11.2 59 4.5 NW 15 24 8 13 1005.6 1005.4 0.0
24/02:00pm 19.3 16.1 11.3 60 4.4 NW 19 24 10 13 1005.7 1005.5 0.0
24/01:30pm 19.2 16.1 11.7 62 4.2 NW 19 24 10 13 1005.7 1005.5 0.0
24/01:00pm 18.6 16.0 12.1 66 3.6 NW 17 24 9 13 1006.0 1005.8 0.0
24/12:30pm 18.9 16.5 12.6 67 3.6 NNW 17 22 9 12 1006.3 1006.1 0.0
24/12:06pm 18.7 17.0 12.5 67 3.5 N 13 20 7 11 1006.5 1006.3 0.0
24/12:00pm 18.9 17.0 13.1 69 3.3 N 15 22 8 12 1006.5 1006.3 0.0
24/11:30am 18.3 16.5 13.4 73 2.8 N 15 19 8 10 1007.0 1006.8 0.0
24/11:17am 18.3 16.7 14.0 76 2.5 NNW 15 20 8 11 1007.1 1006.9 0.0
24/11:00am 18.0 16.0 13.9 77 2.4 N 17 22 9 12 1007.1 1006.9 0.0
24/10:33am 17.5 16.2 13.8 79 2.1 N 13 20 7 11 1007.2 1007.0 0.0
24/10:30am 17.5 16.2 13.8 79 2.1 N 13 20 7 11 1007.2 1007.0 0.0
24/10:09am 17.1 16.0 14.4 84 1.6 N 13 17 7 9 1007.2 1007.0 0.0
24/10:00am 17.1 16.2 14.9 87 1.3 N 13 19 7 10 1007.3 1007.1 0.0
24/09:46am 16.7 16.3 15.2 91 0.9 NW 11 15 6 8 1007.5 1007.3 0.0
24/09:35am 16.6 16.6 15.3 92 0.8 NNW 9 13 5 7 1007.5 1007.3 0.0
24/09:30am 16.5 16.6 15.4 93 0.6 NNW 9 13 5 7 1007.5 1007.3 0.0
24/09:00am 16.0 16.3 15.0 94 0.6 N 7 13 4 7 1007.4 1007.2 3.6
24/08:30am 15.8 15.8 15.2 96 0.3 N 9 11 5 6 1007.5 1007.3 3.6
24/08:00am 15.3 15.8 15.1 99 0.1 N 6 7 3 4 1007.3 1007.1 3.6
24/07:30am 15.2 15.7 15.0 99 0.1 NE 6 9 3 5 1007.0 1006.8 3.6
24/07:00am 15.3 15.6 15.1 99 0.1 ENE 7 9 4 5 1006.7 1006.5 3.6
24/06:50am 15.3 16.1 14.8 97 0.3 ENE 4 9 2 5 1006.7 1006.5 3.6
24/06:30am 15.3 15.7 14.7 96 0.3 N 6 7 3 4 1006.7 1006.5 3.6
24/06:00am 15.6 15.4 14.8 95 0.5 NNW 9 13 5 7 1006.9 1006.7 2.8
24/05:49am 15.9 16.2 15.1 95 0.5 NNW 7 11 4 6 1006.8 1006.6 1.8
24/05:30am 16.0 16.5 15.5 97 0.3 NW 7 9 4 5 1006.8 1006.6 1.0
24/05:20am 16.0 17.4 15.5 97 0.3 N 2 7 1 4 1006.8 1006.6 0.8
24/05:00am 16.0 17.8 15.4 96 0.4 CALM 0 0 0 0 1006.7 1006.5 0.8
24/04:38am 15.8 16.4 15.2 96 0.3 WNW 6 7 3 4 1006.8 1006.6 0.8
24/04:30am 15.9 16.5 15.3 96 0.4 NW 6 6 3 3 1006.7 1006.5 0.8
24/04:00am 15.8 17.3 14.7 93 0.6 CALM 0 0 0 0 1006.7 1006.5 0.8
24/03:30am 16.0 17.6 14.9 93 0.6 CALM 0 0 0 0 1006.8 1006.6 0.8
24/03:00am 16.1 17.8 15.1 94 0.6 CALM 0 2 0 1 1007.0 1006.8 0.8
24/02:30am 16.0 17.6 15.0 94 0.6 CALM 0 4 0 2 1007.4 1007.2 0.8
24/02:00am 16.1 16.5 14.8 92 0.8 SSW 6 7 3 4 1007.7 1007.5 0.8
24/01:30am 17.0 18.5 14.6 86 1.4 CALM 0 0 0 0 1007.8 1007.6 0.4
24/01:00am 16.9 18.2 14.2 84 1.6 CALM 0 6 0 3 1008.2 1008.0 0.0
24/12:30am 17.1 17.9 14.7 86 1.4 E 4 7 2 4 1008.2 1008.0 0.0
24/12:00am 17.3 18.9 14.8 85 1.5 CALM 0 0 0 0 1008.5 1008.3 0.0
 
Date/Time
EST
Temp
°C
App
Temp
°C
Dew
Point
Rel
Hum
%
Delta-T
°C
Wind Press
QNH
hPa
Press
MSL
hPa
Rain
since 9 am
mm
Dir
 
Spd
km/h
Gust
km/h
Spd
kts
Gust
kts
23/11:30pm 17.4 18.8 14.3 82 1.8 CALM 0 0 0 0 1008.9 1008.7 0.0
23/11:00pm 17.7 19.2 14.6 82 1.8 CALM 0 0 0 0 1009.1 1008.9 0.0
23/10:30pm 17.7 19.3 14.8 83 1.7 CALM 0 0 0 0 1009.2 1009.0 0.0
23/10:00pm 17.7 19.2 14.6 82 1.8 CALM 0 0 0 0 1009.4 1009.1 0.0
23/09:30pm 18.1 19.6 14.6 80 2.0 CALM 0 0 0 0 1009.6 1009.3 0.0
23/09:00pm 18.1 19.1 13.2 73 2.8 CALM 0 0 0 0 1009.8 1009.6 0.0
23/08:30pm 19.3 20.0 13.5 69 3.3 NNW 2 7 1 4 1009.8 1009.6 0.0
23/08:00pm 18.5 18.3 12.9 70 3.2 E 6 7 3 4 1009.7 1009.4 0.0
23/07:30pm 20.2 19.4 12.9 63 4.2 SE 9 13 5 7 1009.8 1009.6 0.0
23/07:00pm 20.9 20.4 12.8 60 4.6 SE 7 9 4 5 1010.2 1010.0 0.0
23/06:30pm 21.3 21.0 12.7 58 4.9 SE 6 7 3 4 1010.2 1010.0 0.0
23/06:00pm 21.3 21.1 13.0 59 4.8 SSE 6 7 3 4 1009.9 1009.7 0.0
23/05:30pm 21.2 20.8 12.9 59 4.8 S 7 9 4 5 1009.8 1009.6 0.0
23/05:00pm 22.1 21.2 12.6 55 5.4 SSW 9 11 5 6 1009.6 1009.3 0.0
23/04:30pm 22.9 21.8 13.1 54 5.7 SSW 11 13 6 7 1009.6 1009.3 0.0
23/04:00pm 23.3 22.4 12.6 51 6.2 S 9 13 5 7 1009.8 1009.6 0.0
23/03:30pm 23.6 22.9 13.2 52 6.1 SSE 9 15 5 8 1010.0 1009.8 0.0
23/03:00pm 23.1 22.3 13.0 53 5.9 S 9 13 5 7 1010.1 1009.9 0.0
23/02:30pm 23.2 21.7 13.1 53 5.9 S 13 17 7 9 1010.4 1010.2 0.0
23/02:00pm 23.6 21.7 12.9 51 6.2 SSE 15 20 8 11 1010.5 1010.3 0.0
23/01:30pm 23.3 20.5 12.6 51 6.2 SSE 19 26 10 14 1011.0 1010.8 0.0
23/01:00pm 23.2 20.3 12.8 52 6.0 SSE 20 28 11 15 1011.3 1011.1 0.0
23/12:30pm 22.8 20.6 12.1 51 6.1 SE 15 22 8 12 1011.9 1011.7 0.0
23/12:00pm 22.5 21.2 12.4 52 5.8 S 11 19 6 10 1012.5 1012.3 0.0
23/11:30am 21.8 20.5 12.4 55 5.4 SSE 11 19 6 10 1013.3 1013.1 0.0
23/11:00am 21.1 20.6 12.8 59 4.7 SE 7 11 4 6 1013.8 1013.6 0.0
23/10:30am 19.5 19.3 13.0 66 3.7 NW 6 9 3 5 1014.1 1013.9 0.0
23/10:00am 16.6 17.4 12.4 76 2.3 CALM 0 6 0 3 1014.5 1014.3 0.0
23/09:30am 16.0 16.6 12.0 77 2.2 CALM 0 0 0 0 1014.6 1014.4 0.0
23/09:00am 15.2 14.8 12.3 83 1.6 N 6 9 3 5 1014.8 1014.6 0.2
23/08:30am 14.1 13.7 12.3 89 1.0 E 6 7 3 4 1014.9 1014.7 0.2
23/08:00am 14.0 14.8 12.6 91 0.8 CALM 0 6 0 3 1015.0 1014.9 0.2
23/07:30am 13.6 13.2 12.3 92 0.7 NNW 6 9 3 5 1015.0 1014.9 0.2
23/07:00am 13.6 14.1 11.7 88 1.0 CALM 0 0 0 0 1014.9 1014.7 0.2
23/06:30am 13.5 12.2 11.2 86 1.2 WSW 9 13 5 7 1015.0 1014.9 0.2
23/06:00am 13.3 12.2 11.9 91 0.8 WNW 9 11 5 6 1014.8 1014.6 0.0
23/05:30am 13.7 14.1 11.2 85 1.3 CALM 0 0 0 0 1014.7 1014.5 0.0
23/05:00am 13.7 13.8 10.3 80 1.8 CALM 0 0 0 0 1014.6 1014.4 0.0
23/04:30am 13.8 13.9 10.2 79 1.9 CALM 0 0 0 0 1014.5 1014.3 0.0
23/04:00am 13.7 13.7 9.7 77 2.1 CALM 0 0 0 0 1014.6 1014.4 0.0
23/03:30am 14.1 12.9 9.7 75 2.3 E 6 9 3 5 1014.6 1014.4 0.0
23/03:00am 13.8 12.5 10.0 78 2.0 WNW 7 9 4 5 1014.8 1014.6 0.0
23/02:30am 14.0 12.7 10.0 77 2.1 WNW 7 9 4 5 1015.3 1015.2 0.0
23/02:00am 12.9 12.9 9.7 81 1.6 CALM 0 6 0 3 1015.4 1015.3 0.0
23/01:30am 12.8 11.4 9.6 81 1.6 NNE 7 9 4 5 1015.8 1015.6 0.0
23/01:00am 13.7 12.5 9.4 75 2.2 SSE 6 9 3 5 1016.1 1015.9 0.0
23/12:30am 14.1 12.6 9.1 72 2.6 SW 7 11 4 6 1016.3 1016.1 0.0
23/12:00am 13.9 12.4 9.1 73 2.5 WSW 7 11 4 6 1016.4 1016.2 0.0
 
Date/Time
EST
Temp
°C
App
Temp
°C
Dew
Point
Rel
Hum
%
Delta-T
°C
Wind Press
QNH
hPa
Press
MSL
hPa
Rain
since 9 am
mm
Dir
 
Spd
km/h
Gust
km/h
Spd
kts
Gust
kts
22/11:30pm 14.1 11.7 8.7 70 2.7 W 11 17 6 9 1016.7 1016.5 0.0
22/11:00pm 16.7 13.4 9.4 62 3.8 SSE 17 28 9 15 1016.9 1016.7 0.0
22/10:30pm 16.5 13.1 9.2 62 3.8 SSE 17 24 9 13 1017.5 1017.3 0.0

Other Formats:

Comma delimited format used in spreadsheet applications
http://www.bom.gov.au/fwo/IDV60801/IDV60801.95896.axf

JavaScript Object Notation format (JSON) in row-major order
http://www.bom.gov.au/fwo/IDV60801/IDV60801.95896.json